Time;durP1;ratioP1;P1;durP2;ratioP2;P2;SDS_P1;SDS_P2;PMS_P1;PMS_P2;Temp;Humidity;BMP_temperature;BMP_pressure;BME280_temperature;BME280_humidity;BME280_pressure;Samples;Min_cycle;Max_cycle;Signal;HPM_P1;HPM_P2
2022/04/21 00:02:15;;;;;;;0.40;0.30;;;9.90;99.90;;;;;;6316057;22;20201;-91
2022/04/21 00:04:47;;;;;;;0.27;0.27;;;9.90;99.90;;;;;;6321955;22;20177;-90
2022/04/21 00:07:19;;;;;;;0.60;0.30;;;10.00;99.90;;;;;;6321365;22;20672;-92
2022/04/21 00:09:51;;;;;;;0.70;0.57;;;10.10;99.90;;;;;;6314847;22;20186;-90
2022/04/21 00:12:24;;;;;;;0.30;0.30;;;10.20;99.90;;;;;;6331078;22;20167;-90
2022/04/21 00:15:02;;;;;;;0.67;0.40;;;10.30;99.90;;;;;;6325663;22;20162;-90
2022/04/21 00:17:35;;;;;;;0.43;0.30;;;10.40;99.90;;;;;;6321219;22;20946;-90
2022/04/21 00:20:08;;;;;;;0.20;0.20;;;10.40;99.90;;;;;;6320313;22;20186;-91
2022/04/21 00:25:28;;;;;;;0.57;0.27;;;10.50;99.90;;;;;;6348707;22;20158;-90
2022/04/21 00:28:00;;;;;;;0.87;0.40;;;10.60;99.90;;;;;;6329212;22;20173;-90
2022/04/21 00:30:36;;;;;;;0.30;0.30;;;10.70;99.90;;;;;;6367539;22;20182;-90
2022/04/21 00:33:09;;;;;;;0.37;0.30;;;10.70;99.90;;;;;;6365651;22;20172;-90
2022/04/21 00:35:40;;;;;;;0.30;0.30;;;10.80;99.90;;;;;;6364025;22;20200;-90
2022/04/21 00:38:12;;;;;;;0.50;0.40;;;11.00;99.90;;;;;;6362108;22;20229;-90
2022/04/21 00:40:50;;;;;;;0.37;0.30;;;11.10;99.90;;;;;;6366461;22;20577;-92
2022/04/21 00:43:23;;;;;;;0.27;0.27;;;11.20;99.90;;;;;;6334495;22;20168;-92
2022/04/21 00:45:58;;;;;;;0.50;0.40;;;11.20;99.90;;;;;;6337881;22;20173;-91
2022/04/21 00:48:50;;;;;;;0.57;0.37;;;11.20;99.90;;;;;;6364037;22;20184;-90
2022/04/21 00:51:22;;;;;;;0.50;0.40;;;11.20;99.90;;;;;;6354496;22;20197;-90
2022/04/21 00:53:53;;;;;;;0.50;0.40;;;11.30;99.90;;;;;;6321346;22;20174;-91
2022/04/21 00:56:28;;;;;;;1.20;0.53;;;11.30;99.90;;;;;;6323420;22;20219;-90
2022/04/21 00:59:01;;;;;;;0.20;0.20;;;11.40;99.90;;;;;;6345349;22;20181;-91
2022/04/21 01:04:22;;;;;;;0.83;0.40;;;11.40;99.90;;;;;;6345485;22;20164;-90
2022/04/21 01:06:55;;;;;;;0.83;0.40;;;11.40;99.90;;;;;;6318836;22;20193;-91
2022/04/21 01:09:26;;;;;;;0.30;0.30;;;11.40;99.90;;;;;;6344288;22;20174;-92
2022/04/21 01:14:27;;;;;;;0.40;0.40;;;11.40;99.90;;;;;;6289993;22;20193;-91
2022/04/21 01:17:05;;;;;;;0.30;0.30;;;11.40;99.90;;;;;;6293050;22;20167;-90
2022/04/21 01:19:37;;;;;;;1.47;0.30;;;11.30;99.90;;;;;;6267303;22;20167;-91
2022/04/21 01:22:39;;;;;;;0.30;0.30;;;11.30;99.90;;;;;;6299752;22;20282;-92
2022/04/21 01:25:16;;;;;;;0.50;0.40;;;11.30;99.90;;;;;;6297871;22;20205;-92
2022/04/21 01:27:53;;;;;;;0.30;0.30;;;11.20;99.90;;;;;;6303551;22;20170;-91
2022/04/21 01:33:07;;;;;;;0.23;0.23;;;11.20;99.90;;;;;;6366307;22;20209;-90
2022/04/21 01:35:42;;;;;;;0.40;0.30;;;11.10;99.90;;;;;;6364655;22;20186;-91
2022/04/21 01:41:11;;;;;;;0.40;0.40;;;11.10;99.90;;;;;;6299524;22;20203;-92
2022/04/21 01:43:43;;;;;;;0.30;0.30;;;11.20;99.90;;;;;;6366508;22;20174;-91
2022/04/21 01:46:16;;;;;;;0.97;0.30;;;11.40;99.90;;;;;;6367284;22;20166;-89
2022/04/21 01:48:52;;;;;;;0.40;0.20;;;11.50;99.90;;;;;;6361584;22;20173;-91
2022/04/21 01:51:26;;;;;;;0.20;0.13;;;11.50;99.90;;;;;;6363972;22;20194;-92
2022/04/21 01:53:57;;;;;;;0.20;0.20;;;11.60;99.90;;;;;;6335277;22;20273;-91
2022/04/21 01:56:33;;;;;;;0.33;0.30;;;11.50;99.90;;;;;;6346929;22;20166;-90
2022/04/21 01:59:09;;;;;;;0.20;0.20;;;11.50;99.90;;;;;;6360573;22;20174;-91
2022/04/21 02:01:40;;;;;;;0.30;0.30;;;11.50;99.90;;;;;;6359292;22;20616;-92
2022/04/21 02:04:15;;;;;;;0.40;0.40;;;11.60;99.90;;;;;;6358140;22;20166;-91
2022/04/21 02:06:49;;;;;;;0.30;0.30;;;11.50;99.90;;;;;;6358684;22;20173;-90
2022/04/21 02:09:21;;;;;;;0.50;0.50;;;11.60;99.90;;;;;;6358321;22;20181;-92
2022/04/21 02:11:55;;;;;;;0.60;0.27;;;11.50;99.90;;;;;;6357706;22;20227;-91
2022/04/21 02:14:28;;;;;;;0.30;0.30;;;11.40;99.90;;;;;;6348570;22;20166;-91
2022/04/21 02:22:27;;;;;;;0.70;0.40;;;11.30;99.90;;;;;;6358676;22;20199;-91
2022/04/21 02:25:02;;;;;;;0.40;0.40;;;11.20;99.90;;;;;;6330897;22;20207;-92
2022/04/21 02:27:39;;;;;;;0.30;0.30;;;11.10;99.90;;;;;;6357382;22;20176;-92
2022/04/21 02:30:12;;;;;;;0.30;0.27;;;11.00;99.90;;;;;;6358742;22;20170;-91
2022/04/21 02:32:45;;;;;;;0.40;0.40;;;11.00;99.90;;;;;;6355848;22;20261;-90
2022/04/21 02:35:24;;;;;;;0.63;0.47;;;11.00;99.90;;;;;;6355725;22;20174;-91
2022/04/21 02:37:58;;;;;;;0.70;0.50;;;11.00;99.90;;;;;;6358253;22;20168;-91
2022/04/21 02:40:36;;;;;;;2.20;0.80;;;11.00;99.90;;;;;;6356830;22;20173;-92
2022/04/21 02:43:13;;;;;;;3.57;0.93;;;10.70;99.90;;;;;;6358294;22;20173;-90
2022/04/21 02:45:47;;;;;;;2.07;1.00;;;10.40;99.90;;;;;;6356261;22;20493;-91
2022/04/21 02:48:20;;;;;;;1.40;0.80;;;10.30;99.90;;;;;;6353631;22;20248;-91
2022/04/21 02:50:55;;;;;;;4.03;1.00;;;10.20;99.90;;;;;;6358608;22;20166;-92
2022/04/21 02:59:00;;;;;;;1.97;1.30;;;9.80;99.90;;;;;;6329173;22;20685;-91
2022/04/21 03:01:32;;;;;;;1.20;1.10;;;9.70;99.90;;;;;;6323343;22;20184;-91
2022/04/21 03:04:04;;;;;;;1.60;1.23;;;9.50;99.90;;;;;;6325213;22;20197;-91
2022/04/21 03:06:37;;;;;;;2.27;1.20;;;9.30;99.90;;;;;;6319652;22;20171;-91
2022/04/21 03:09:08;;;;;;;1.30;1.10;;;9.20;99.90;;;;;;6318411;22;20174;-91
2022/04/21 03:11:41;;;;;;;1.30;0.90;;;9.10;99.90;;;;;;6313496;22;20202;-91
2022/04/21 03:14:18;;;;;;;1.10;1.00;;;9.10;99.90;;;;;;6313141;22;20235;-91
2022/04/21 03:17:03;;;;;;;2.70;0.90;;;9.00;99.90;;;;;;6314408;22;20185;-91
2022/04/21 03:19:35;;;;;;;1.53;0.70;;;9.00;99.90;;;;;;6311078;22;20190;-91
2022/04/21 03:25:02;;;;;;;0.70;0.60;;;9.00;99.90;;;;;;6314583;22;20184;-91
2022/04/21 03:27:34;;;;;;;0.73;0.67;;;9.00;99.90;;;;;;6314491;22;20234;-90
2022/04/21 03:30:08;;;;;;;1.77;1.00;;;8.90;99.90;;;;;;6323838;22;20174;-89
2022/04/21 03:32:43;;;;;;;0.70;0.70;;;8.90;99.90;;;;;;6316347;22;20225;-89
2022/04/21 03:35:15;;;;;;;0.70;0.60;;;8.80;99.90;;;;;;6328801;22;20174;-90
2022/04/21 03:37:46;;;;;;;0.90;0.90;;;8.70;99.90;;;;;;6326666;22;20162;-91
2022/04/21 03:40:18;;;;;;;1.30;0.80;;;8.70;99.90;;;;;;6328174;22;20512;-91
2022/04/21 03:42:51;;;;;;;1.47;0.90;;;8.70;99.90;;;;;;6325143;22;20181;-90
2022/04/21 03:48:11;;;;;;;0.60;0.60;;;8.60;99.90;;;;;;6322761;22;20193;-91
2022/04/21 03:50:43;;;;;;;1.10;0.93;;;8.60;99.90;;;;;;6316610;22;20657;-91
2022/04/21 03:53:16;;;;;;;1.27;1.00;;;8.50;99.90;;;;;;6322265;22;20209;-90
2022/04/21 03:55:52;;;;;;;2.57;1.27;;;8.50;99.90;;;;;;6329055;22;20194;-88
2022/04/21 03:58:27;;;;;;;1.43;1.00;;;8.40;99.90;;;;;;6334053;22;20233;-90
2022/04/21 04:01:02;;;;;;;2.07;1.17;;;8.30;99.90;;;;;;6335110;22;20162;-90
2022/04/21 04:03:36;;;;;;;1.87;0.90;;;8.30;99.90;;;;;;6332541;22;20204;-88
2022/04/21 04:10:51;;;;;;;1.43;1.10;;;8.20;99.90;;;;;;6327866;22;20170;-90
2022/04/21 04:11:48;;;;;;;1.17;1.07;;;8.10;99.90;;;;;;6323322;22;20210;-90
2022/04/21 04:14:21;;;;;;;1.77;1.20;;;8.10;99.90;;;;;;6319158;22;20480;-91
2022/04/21 04:16:57;;;;;;;1.10;0.90;;;8.00;99.90;;;;;;6328328;22;20167;-90
2022/04/21 04:19:30;;;;;;;2.70;1.10;;;8.00;99.90;;;;;;6325567;22;20226;-90
2022/04/21 04:24:56;;;;;;;1.10;1.00;;;7.80;99.90;;;;;;6330117;22;20170;-88
2022/04/21 04:27:31;;;;;;;1.80;1.20;;;7.90;99.90;;;;;;6327047;22;20198;-92
2022/04/21 04:30:17;;;;;;;2.03;1.27;;;7.90;99.90;;;;;;6316062;22;20514;-90
2022/04/21 04:32:50;;;;;;;1.10;1.00;;;7.90;99.90;;;;;;6314820;22;20648;-90
2022/04/21 04:35:22;;;;;;;1.00;0.90;;;7.90;99.90;;;;;;6319227;22;20170;-90
2022/04/21 04:37:54;;;;;;;2.23;1.20;;;7.90;99.90;;;;;;6313413;22;20194;-89
2022/04/21 04:40:25;;;;;;;1.63;0.90;;;8.00;99.90;;;;;;6315627;22;20175;-90
2022/04/21 04:43:04;;;;;;;1.70;1.07;;;8.10;99.90;;;;;;6316172;22;20196;-90
2022/04/21 04:48:26;;;;;;;0.93;0.80;;;8.20;99.90;;;;;;6319153;22;20177;-90
2022/04/21 04:51:00;;;;;;;1.37;0.80;;;8.20;99.90;;;;;;6328191;22;20174;-91
2022/04/21 04:53:35;;;;;;;1.10;0.90;;;8.20;99.90;;;;;;6328970;22;20209;-90
2022/04/21 04:56:08;;;;;;;0.93;0.70;;;8.20;99.90;;;;;;6335025;22;20185;-91
2022/04/21 04:58:38;;;;;;;1.57;0.90;;;8.10;99.90;;;;;;6333482;22;20174;-91
2022/04/21 05:03:51;;;;;;;2.50;1.07;;;8.10;99.90;;;;;;6317888;22;20205;-90
2022/04/21 05:06:23;;;;;;;1.60;0.73;;;8.00;99.90;;;;;;6321897;22;20197;-90
2022/04/21 05:08:55;;;;;;;1.23;0.90;;;8.10;99.90;;;;;;6318585;22;20178;-89
2022/04/21 05:11:35;;;;;;;1.77;1.20;;;8.10;99.90;;;;;;6326525;22;20212;-90
2022/04/21 05:14:13;;;;;;;1.60;1.40;;;8.10;99.90;;;;;;6326119;22;20232;-90
2022/04/21 05:16:44;;;;;;;1.20;1.10;;;8.10;99.90;;;;;;6318540;22;20209;-90
2022/04/21 05:19:23;;;;;;;1.90;1.17;;;8.20;99.90;;;;;;6324768;22;20207;-89
2022/04/21 05:21:55;;;;;;;1.10;1.00;;;8.20;99.90;;;;;;6330657;22;20166;-90
2022/04/21 05:24:28;;;;;;;1.50;1.20;;;8.30;99.90;;;;;;6325233;22;20182;-89
2022/04/21 05:27:00;;;;;;;1.87;1.13;;;8.30;99.90;;;;;;6322418;22;20220;-89
2022/04/21 05:32:30;;;;;;;1.90;1.37;;;8.20;99.90;;;;;;6330028;22;20166;-91
2022/04/21 05:35:09;;;;;;;2.20;1.20;;;8.20;99.90;;;;;;6335227;22;20162;-91
2022/04/21 05:37:42;;;;;;;1.83;1.13;;;8.20;99.90;;;;;;6333997;22;20223;-90
2022/04/21 05:40:15;;;;;;;1.90;1.07;;;8.20;99.90;;;;;;6328478;22;20174;-90
2022/04/21 05:42:51;;;;;;;1.97;1.00;;;8.20;99.90;;;;;;6316232;22;20170;-90
2022/04/21 05:45:26;;;;;;;1.83;1.10;;;8.20;99.90;;;;;;6327836;22;20162;-90
2022/04/21 05:47:59;;;;;;;1.47;1.10;;;8.20;99.90;;;;;;6334345;22;20170;-90
2022/04/21 05:50:34;;;;;;;2.17;1.30;;;8.20;99.90;;;;;;6307900;22;20216;-91
2022/04/21 05:53:07;;;;;;;4.00;1.83;;;8.10;99.90;;;;;;6334937;22;20181;-91
2022/04/21 05:55:39;;;;;;;3.63;2.07;;;8.00;99.90;;;;;;6334722;22;20205;-90
2022/04/21 05:58:10;;;;;;;3.93;1.90;;;7.80;99.90;;;;;;6334251;22;20162;-90
2022/04/21 06:00:42;;;;;;;3.53;1.30;;;7.80;99.90;;;;;;6308663;22;20256;-91
2022/04/21 06:03:13;;;;;;;2.93;1.50;;;7.70;99.90;;;;;;6348916;22;20173;-90
2022/04/21 06:05:47;;;;;;;2.00;1.30;;;7.60;99.90;;;;;;6364990;22;20200;-91
2022/04/21 06:08:21;;;;;;;1.83;1.17;;;7.50;99.90;;;;;;6364472;22;20169;-90
2022/04/21 06:10:52;;;;;;;3.13;1.00;;;7.40;99.90;;;;;;6365809;22;20169;-91
2022/04/21 06:13:24;;;;;;;1.43;1.07;;;7.40;99.90;;;;;;6365591;22;20182;-91
2022/04/21 06:15:55;;;;;;;1.70;1.20;;;7.20;99.90;;;;;;6365162;22;20191;-90
2022/04/21 06:18:29;;;;;;;1.50;1.20;;;7.20;99.90;;;;;;6358939;22;20176;-91
2022/04/21 06:21:03;;;;;;;3.60;1.20;;;7.10;99.90;;;;;;6358579;22;20177;-90
2022/04/21 06:23:35;;;;;;;2.97;1.20;;;7.00;99.90;;;;;;6358293;22;20162;-89
2022/04/21 06:26:06;;;;;;;1.10;1.00;;;7.00;99.90;;;;;;6361689;22;20181;-89
2022/04/21 06:28:37;;;;;;;1.23;1.03;;;7.00;99.90;;;;;;6360558;22;20183;-91
2022/04/21 06:31:08;;;;;;;2.47;1.30;;;7.00;99.90;;;;;;6361357;22;20639;-90
2022/04/21 06:33:42;;;;;;;2.10;1.17;;;6.80;99.90;;;;;;6360963;22;20185;-90
2022/04/21 06:36:15;;;;;;;2.23;1.00;;;6.80;99.90;;;;;;6355081;22;20177;-90
2022/04/21 06:38:47;;;;;;;1.80;1.20;;;6.70;99.90;;;;;;6345462;22;20177;-89
2022/04/21 06:41:18;;;;;;;1.07;0.97;;;6.70;99.90;;;;;;6351119;22;20166;-90
2022/04/21 06:49:25;;;;;;;1.17;1.07;;;6.50;99.90;;;;;;6359716;22;20174;-90
2022/04/21 06:51:59;;;;;;;1.17;1.03;;;6.40;99.90;;;;;;6364458;22;20162;-90
2022/04/21 06:54:31;;;;;;;2.80;1.30;;;6.40;99.90;;;;;;6334919;22;20201;-91
2022/04/21 06:57:02;;;;;;;1.90;1.20;;;6.30;99.90;;;;;;6364742;22;20172;-91
2022/04/21 06:59:32;;;;;;;1.73;1.07;;;6.30;99.90;;;;;;6355366;22;20287;-91
2022/04/21 07:02:06;;;;;;;1.33;1.20;;;6.30;99.90;;;;;;6349778;22;20176;-91
2022/04/21 07:04:37;;;;;;;1.27;1.13;;;6.30;99.90;;;;;;6323230;22;20189;-90
2022/04/21 07:07:10;;;;;;;2.77;1.23;;;6.20;99.90;;;;;;6345326;22;20188;-91
2022/04/21 07:09:42;;;;;;;1.97;1.20;;;6.20;99.90;;;;;;6293373;22;20162;-90
2022/04/21 07:12:13;;;;;;;2.13;1.13;;;6.20;99.90;;;;;;6345770;22;20177;-91
2022/04/21 07:14:47;;;;;;;1.90;1.30;;;6.10;99.90;;;;;;6345965;22;20584;-91
2022/04/21 07:17:19;;;;;;;2.30;1.30;;;6.00;99.90;;;;;;6344469;22;20276;-90
2022/04/21 07:19:51;;;;;;;1.47;1.20;;;6.00;99.90;;;;;;6346144;22;20188;-90
2022/04/21 07:22:26;;;;;;;2.23;1.00;;;6.00;99.90;;;;;;6345378;22;20184;-90
2022/04/21 07:24:58;;;;;;;1.77;1.30;;;6.00;99.90;;;;;;6345030;22;20169;-90
2022/04/21 07:27:29;;;;;;;1.40;1.30;;;6.00;99.90;;;;;;6344830;22;20177;-90
2022/04/21 07:30:01;;;;;;;1.67;1.27;;;6.00;99.90;;;;;;6345027;22;20194;-89
2022/04/21 07:35:21;;;;;;;3.00;1.50;;;6.00;99.90;;;;;;6236930;23;20189;-89
2022/04/21 07:37:55;;;;;;;2.07;1.20;;;6.00;99.90;;;;;;6238276;23;20176;-90
2022/04/21 07:40:26;;;;;;;1.23;1.10;;;6.00;99.90;;;;;;6232994;23;20171;-91
2022/04/21 07:43:02;;;;;;;3.27;1.40;;;6.00;99.90;;;;;;6222337;23;20246;-89
2022/04/21 07:45:33;;;;;;;1.07;0.83;;;5.90;99.90;;;;;;6221514;23;20644;-90
2022/04/21 07:48:04;;;;;;;1.60;1.37;;;5.90;99.90;;;;;;6220172;23;20176;-89
2022/04/21 07:50:36;;;;;;;1.57;1.10;;;5.90;99.90;;;;;;6220702;23;20177;-89
2022/04/21 07:53:27;;;;;;;2.03;1.60;;;5.90;99.90;;;;;;6220769;23;20166;-90
2022/04/21 07:55:58;;;;;;;2.23;1.23;;;5.90;99.90;;;;;;6195141;23;20172;-90
2022/04/21 07:58:30;;;;;;;2.27;1.10;;;5.90;99.90;;;;;;6219390;23;20522;-91
2022/04/21 08:01:01;;;;;;;1.23;1.10;;;5.90;99.90;;;;;;6221253;23;20539;-91
2022/04/21 08:03:37;;;;;;;3.67;1.50;;;5.90;99.90;;;;;;6195329;23;20169;-90
2022/04/21 08:06:08;;;;;;;2.40;1.23;;;5.90;99.90;;;;;;6195560;23;20180;-91
2022/04/21 08:08:42;;;;;;;1.93;1.30;;;5.90;99.90;;;;;;6220010;23;20231;-91
2022/04/21 08:11:13;;;;;;;1.20;1.10;;;5.90;99.90;;;;;;6220466;23;20184;-91
2022/04/21 08:13:47;;;;;;;1.43;1.07;;;5.90;99.90;;;;;;6196652;23;20519;-90
2022/04/21 08:16:18;;;;;;;1.43;0.97;;;5.80;99.90;;;;;;6199034;23;20180;-92
2022/04/21 08:18:52;;;;;;;1.00;1.00;;;5.80;99.90;;;;;;6213368;23;20172;-90
2022/04/21 08:21:24;;;;;;;1.63;1.03;;;5.80;99.90;;;;;;6229297;23;20226;-89
2022/04/21 08:33:18;;;;;;;1.73;0.83;;;5.90;99.90;;;;;;6227239;23;20179;-91
2022/04/21 08:35:51;;;;;;;0.97;0.80;;;5.90;99.90;;;;;;6253327;22;20226;-90
2022/04/21 08:38:24;;;;;;;0.63;0.63;;;6.00;99.90;;;;;;6252057;23;20176;-90
2022/04/21 08:40:59;;;;;;;0.80;0.60;;;5.90;99.90;;;;;;6252887;22;20233;-90
2022/04/21 08:43:30;;;;;;;0.70;0.70;;;5.90;99.90;;;;;;6253108;22;20225;-89
2022/04/21 08:46:04;;;;;;;0.70;0.70;;;6.00;99.90;;;;;;6252613;22;20180;-90
2022/04/21 08:48:36;;;;;;;0.60;0.60;;;5.90;99.90;;;;;;6250522;23;20655;-89
2022/04/21 08:51:10;;;;;;;0.63;0.63;;;5.90;99.90;;;;;;6252127;23;20176;-90
2022/04/21 08:53:44;;;;;;;1.17;0.70;;;6.00;99.90;;;;;;6252005;23;20176;-90
2022/04/21 08:56:18;;;;;;;1.37;0.80;;;6.00;99.90;;;;;;6252308;23;20194;-90
2022/04/21 08:58:50;;;;;;;1.63;0.50;;;6.00;99.90;;;;;;6251428;23;20181;-90
2022/04/21 09:01:23;;;;;;;2.03;1.03;;;6.00;99.90;;;;;;6252190;22;20230;-91
2022/04/21 09:03:54;;;;;;;0.50;0.50;;;6.10;99.90;;;;;;6250707;23;20191;-91
2022/04/21 09:06:27;;;;;;;0.70;0.70;;;6.10;99.90;;;;;;6251353;23;20485;-90
2022/04/21 09:09:21;;;;;;;0.63;0.63;;;6.10;99.90;;;;;;6250907;22;20178;-91
2022/04/21 09:11:55;;;;;;;0.80;0.80;;;6.10;99.90;;;;;;6251858;22;20188;-91
2022/04/21 09:14:27;;;;;;;0.97;0.80;;;6.20;99.90;;;;;;6252272;23;20277;-90
2022/04/21 09:17:07;;;;;;;0.73;0.70;;;6.10;99.90;;;;;;6251852;23;20176;-91
2022/04/21 09:19:56;;;;;;;1.70;1.17;;;6.20;99.90;;;;;;6251280;22;20250;-90
2022/04/21 09:22:27;;;;;;;1.67;1.10;;;6.20;99.90;;;;;;6252121;22;20205;-91
2022/04/21 09:25:01;;;;;;;1.47;1.20;;;6.20;99.90;;;;;;6251799;22;20175;-91
2022/04/21 09:27:48;;;;;;;2.03;1.10;;;6.20;99.90;;;;;;6249569;23;20200;-90
2022/04/21 09:30:20;;;;;;;2.00;1.03;;;6.20;99.90;;;;;;6251070;23;20202;-91
2022/04/21 09:32:57;;;;;;;1.33;1.10;;;6.20;99.90;;;;;;6251954;22;20177;-90
2022/04/21 09:35:33;;;;;;;1.07;0.97;;;6.30;99.90;;;;;;6250707;22;20281;-90
2022/04/21 09:38:04;;;;;;;1.10;1.00;;;6.30;99.90;;;;;;6254158;23;20175;-91
2022/04/21 09:40:40;;;;;;;1.37;0.90;;;6.30;99.90;;;;;;6252191;23;20567;-91
2022/04/21 09:43:15;;;;;;;1.23;1.00;;;6.30;99.90;;;;;;6253609;22;20182;-89
2022/04/21 09:48:35;;;;;;;1.00;0.70;;;6.30;99.90;;;;;;6252183;22;20171;-90
2022/04/21 09:51:13;;;;;;;0.77;0.60;;;6.40;99.90;;;;;;6256156;22;20179;-91
2022/04/21 09:53:52;;;;;;;0.87;0.73;;;6.40;99.90;;;;;;6261091;22;20174;-90
2022/04/21 09:56:34;;;;;;;1.20;0.77;;;6.50;99.90;;;;;;6272180;22;20195;-90
2022/04/21 09:59:12;;;;;;;0.57;0.50;;;6.50;99.90;;;;;;6269986;23;20178;-90
2022/04/21 10:01:44;;;;;;;0.60;0.60;;;6.50;99.90;;;;;;6271491;23;20178;-90
2022/04/21 10:04:17;;;;;;;0.70;0.70;;;6.50;99.90;;;;;;6266356;22;20235;-90
2022/04/21 10:06:49;;;;;;;0.87;0.80;;;6.50;99.90;;;;;;6254887;22;20180;-90
2022/04/21 10:09:21;;;;;;;1.53;0.60;;;6.50;99.90;;;;;;6256988;23;20176;-90
2022/04/21 10:11:55;;;;;;;2.17;0.50;;;6.60;99.90;;;;;;6256035;23;20168;-90
2022/04/21 10:14:29;;;;;;;0.50;0.50;;;6.60;99.90;;;;;;6252865;22;20271;-90
2022/04/21 10:17:02;;;;;;;0.60;0.60;;;6.60;99.90;;;;;;6250652;23;20494;-90
2022/04/21 10:19:33;;;;;;;1.27;0.60;;;6.60;99.90;;;;;;6252740;23;20175;-90
2022/04/21 10:22:06;;;;;;;1.50;0.50;;;6.70;99.90;;;;;;6252777;22;20223;-90
2022/04/21 10:24:41;;;;;;;1.13;0.60;;;6.60;99.90;;;;;;6252260;22;20493;-90
2022/04/21 10:27:37;;;;;;;0.50;0.50;;;6.60;99.90;;;;;;6252031;22;20175;-91
2022/04/21 10:30:30;;;;;;;0.90;0.47;;;6.60;99.90;;;;;;6252130;23;20214;-91
2022/04/21 10:33:02;;;;;;;0.80;0.60;;;6.60;99.90;;;;;;6252842;22;20500;-91
2022/04/21 10:35:52;;;;;;;2.00;0.50;;;6.60;99.90;;;;;;6252259;22;20235;-90
2022/04/21 10:38:36;;;;;;;0.50;0.43;;;6.60;99.90;;;;;;6254068;23;20519;-91
2022/04/21 10:41:10;;;;;;;0.73;0.47;;;6.60;99.90;;;;;;6268746;22;20201;-90
2022/04/21 10:44:15;;;;;;;0.40;0.40;;;6.60;99.90;;;;;;6268799;23;20183;-90
2022/04/21 10:46:51;;;;;;;1.17;0.40;;;6.60;99.90;;;;;;6253459;22;20180;-89
2022/04/21 10:49:57;;;;;;;1.53;0.47;;;6.70;99.90;;;;;;6253160;22;20186;-90
2022/04/21 10:58:53;;;;;;;0.60;0.50;;;6.80;99.90;;;;;;6251541;22;20263;-90
2022/04/21 11:01:35;;;;;;;0.87;0.87;;;6.80;99.90;;;;;;6253228;23;20172;-89
2022/04/21 11:04:23;;;;;;;1.13;0.90;;;6.80;99.90;;;;;;6249920;23;20282;-89
2022/04/21 11:07:13;;;;;;;1.37;1.00;;;6.80;99.90;;;;;;6252134;23;20182;-90
2022/04/21 11:09:50;;;;;;;1.77;1.00;;;6.80;99.90;;;;;;6252976;23;20193;-91
2022/04/21 11:12:49;;;;;;;1.67;1.20;;;6.80;99.90;;;;;;6251682;23;20182;-90
2022/04/21 11:15:39;;;;;;;2.33;0.90;;;6.90;99.90;;;;;;6252379;23;20278;-92
2022/04/21 11:18:11;;;;;;;1.00;0.90;;;6.80;99.90;;;;;;6251264;23;20240;-89
2022/04/21 11:20:46;;;;;;;1.33;0.80;;;6.90;99.90;;;;;;6251211;22;20164;-90
2022/04/21 11:23:25;;;;;;;1.40;0.90;;;6.90;99.90;;;;;;6251347;22;20182;-90
2022/04/21 11:26:05;;;;;;;3.27;1.10;;;6.90;99.90;;;;;;6251959;22;20176;-90
2022/04/21 11:28:37;;;;;;;1.87;0.97;;;6.90;99.90;;;;;;6255712;23;20178;-91
2022/04/21 11:31:08;;;;;;;0.60;0.43;;;6.90;99.90;;;;;;6250842;22;20194;-91
2022/04/21 11:33:41;;;;;;;0.70;0.70;;;7.00;99.90;;;;;;6251277;22;20179;-91
2022/04/21 11:36:16;;;;;;;0.70;0.70;;;7.20;99.90;;;;;;6254923;22;20544;-91
2022/04/21 11:38:48;;;;;;;0.93;0.67;;;7.30;99.90;;;;;;6250244;22;20180;-91
2022/04/21 11:41:19;;;;;;;1.13;0.80;;;7.30;99.90;;;;;;6252271;22;20180;-90
2022/04/21 11:43:52;;;;;;;2.33;1.00;;;7.20;99.90;;;;;;6251434;23;20513;-90
2022/04/21 11:46:24;;;;;;;1.87;1.50;;;7.10;99.90;;;;;;6251425;22;20176;-90
2022/04/21 11:49:00;;;;;;;3.20;1.50;;;7.00;99.90;;;;;;6253665;23;20178;-90
2022/04/21 11:51:34;;;;;;;2.70;1.67;;;6.90;99.90;;;;;;6252711;23;20622;-90
2022/04/21 11:54:06;;;;;;;3.87;2.47;;;6.90;99.90;;;;;;6253341;23;20214;-90
2022/04/21 11:56:37;;;;;;;3.27;2.70;;;6.80;99.90;;;;;;6255469;22;20188;-90
2022/04/21 11:59:10;;;;;;;4.30;2.83;;;6.80;99.90;;;;;;6252193;23;20558;-90
2022/04/21 12:07:21;;;;;;;3.60;2.63;;;6.70;99.90;;;;;;6267818;23;20459;-92
2022/04/21 12:09:55;;;;;;;5.47;2.73;;;6.60;99.90;;;;;;6271608;22;20163;-91
2022/04/21 12:12:26;;;;;;;5.60;3.30;;;6.60;99.90;;;;;;6270199;22;20179;-91
2022/04/21 12:14:57;;;;;;;4.00;2.50;;;6.60;99.90;;;;;;6273336;22;20175;-92
2022/04/21 12:17:33;;;;;;;3.70;3.30;;;6.60;99.90;;;;;;6272599;22;20247;-90
2022/04/21 12:20:07;;;;;;;3.80;3.40;;;6.60;99.90;;;;;;6270002;22;20183;-91
2022/04/21 12:22:42;;;;;;;7.23;3.50;;;6.50;99.90;;;;;;6268267;23;20210;-90
2022/04/21 12:25:14;;;;;;;5.10;3.00;;;6.50;99.90;;;;;;6260627;22;20175;-90
2022/04/21 12:27:46;;;;;;;4.40;2.87;;;6.50;99.90;;;;;;6253902;23;20226;-89
2022/04/21 12:30:17;;;;;;;4.23;2.60;;;6.50;99.90;;;;;;6253026;23;20606;-89
2022/04/21 12:32:51;;;;;;;5.57;3.00;;;6.50;99.90;;;;;;6252267;22;20618;-89
2022/04/21 12:35:46;;;;;;;4.83;2.80;;;6.50;99.90;;;;;;6252715;23;20180;-90
2022/04/21 12:41:07;;;;;;;5.80;2.23;;;6.50;99.90;;;;;;6251585;23;20623;-90
2022/04/21 12:43:38;;;;;;;2.33;2.13;;;6.40;99.90;;;;;;6251694;22;20191;-89
2022/04/21 12:46:10;;;;;;;3.67;2.30;;;6.40;99.90;;;;;;6252232;22;20180;-90
2022/04/21 12:48:49;;;;;;;4.37;2.10;;;6.40;99.90;;;;;;6251855;22;20200;-90
2022/04/21 12:51:21;;;;;;;3.07;1.80;;;6.40;99.90;;;;;;6252349;23;20176;-89
2022/04/21 12:54:01;;;;;;;2.10;1.90;;;6.40;99.90;;;;;;6269547;22;20183;-89
2022/04/21 12:56:39;;;;;;;2.43;1.70;;;6.40;99.90;;;;;;6273428;22;20200;-89
2022/04/21 12:59:11;;;;;;;3.27;1.90;;;6.40;99.90;;;;;;6264597;22;20191;-88
2022/04/21 13:01:42;;;;;;;3.27;1.70;;;6.40;99.90;;;;;;6253110;23;20195;-89
2022/04/21 13:04:13;;;;;;;1.77;1.30;;;6.50;99.90;;;;;;6252751;22;20244;-89
2022/04/21 13:06:45;;;;;;;2.20;1.53;;;6.50;99.90;;;;;;6252069;22;20183;-90
2022/04/21 13:09:19;;;;;;;2.47;1.73;;;6.50;99.90;;;;;;6250792;23;20172;-90
2022/04/21 13:11:51;;;;;;;2.53;1.70;;;6.60;99.90;;;;;;6251574;23;20176;-90
2022/04/21 13:14:22;;;;;;;3.30;1.40;;;6.50;99.90;;;;;;6251484;23;20222;-90
2022/04/21 13:16:53;;;;;;;4.53;1.80;;;6.60;99.90;;;;;;6250793;23;20203;-90
2022/04/21 13:19:25;;;;;;;3.03;1.80;;;6.60;99.90;;;;;;6249786;23;20171;-90
2022/04/21 13:22:07;;;;;;;3.77;2.00;;;6.60;99.90;;;;;;6251672;22;20172;-91
2022/04/21 13:24:40;;;;;;;2.10;1.50;;;6.60;99.90;;;;;;6250193;23;20215;-90
2022/04/21 13:27:15;;;;;;;1.77;1.40;;;6.60;99.90;;;;;;6251367;22;20225;-90
2022/04/21 13:29:50;;;;;;;2.37;1.40;;;6.60;99.90;;;;;;6250852;23;20179;-90
2022/04/21 13:35:10;;;;;;;3.47;1.70;;;6.60;99.90;;;;;;6251338;23;20172;-90
2022/04/21 13:37:42;;;;;;;4.33;1.90;;;6.50;99.90;;;;;;6250537;23;20194;-90
2022/04/21 13:40:17;;;;;;;1.63;1.30;;;6.60;99.90;;;;;;6251188;23;20265;-90
2022/04/21 13:42:48;;;;;;;2.10;1.57;;;6.60;99.90;;;;;;6259245;22;20197;-90
2022/04/21 13:45:19;;;;;;;3.07;1.53;;;6.60;99.90;;;;;;6268825;22;20168;-90
2022/04/21 13:48:04;;;;;;;2.03;1.50;;;6.60;99.90;;;;;;6262861;23;20179;-90
2022/04/21 13:50:35;;;;;;;1.53;1.30;;;6.60;99.90;;;;;;6253203;23;20510;-90
2022/04/21 13:53:09;;;;;;;2.77;1.50;;;6.70;99.90;;;;;;6252880;23;20556;-90
2022/04/21 13:55:43;;;;;;;2.03;1.70;;;6.70;99.90;;;;;;6251447;23;20222;-90
2022/04/21 13:58:14;;;;;;;2.23;1.30;;;6.70;99.90;;;;;;6250031;23;20289;-89
2022/04/21 14:00:46;;;;;;;2.33;1.33;;;6.70;99.90;;;;;;6250858;23;20176;-91
2022/04/21 14:03:17;;;;;;;1.30;1.20;;;6.80;99.90;;;;;;6251253;22;20273;-89
2022/04/21 14:05:49;;;;;;;2.10;1.30;;;6.80;99.90;;;;;;6251026;23;20183;-89
2022/04/21 14:08:20;;;;;;;1.47;1.37;;;6.90;99.90;;;;;;6250656;23;20233;-91
2022/04/21 14:10:57;;;;;;;1.80;1.23;;;6.90;99.90;;;;;;6251036;22;20200;-91
2022/04/21 14:13:28;;;;;;;1.20;1.10;;;6.90;99.90;;;;;;6253647;22;20172;-89
2022/04/21 14:16:01;;;;;;;2.07;1.30;;;6.90;99.90;;;;;;6251783;22;20179;-91
2022/04/21 14:18:53;;;;;;;1.50;1.37;;;7.00;99.90;;;;;;6252322;22;20246;-90
2022/04/21 14:21:24;;;;;;;3.67;1.30;;;7.00;99.90;;;;;;6255589;23;20187;-90
2022/04/21 14:23:55;;;;;;;1.67;1.30;;;7.00;99.90;;;;;;6253046;22;20179;-90
2022/04/21 14:26:29;;;;;;;2.03;1.23;;;7.10;99.90;;;;;;6252087;22;20176;-90
2022/04/21 14:29:00;;;;;;;3.23;1.47;;;7.10;99.90;;;;;;6255899;22;20201;-90
2022/04/21 14:31:31;;;;;;;1.57;1.10;;;7.10;99.90;;;;;;6257847;23;20178;-90
2022/04/21 14:34:07;;;;;;;1.37;1.00;;;7.10;99.90;;;;;;6254584;23;20214;-90
2022/04/21 14:36:40;;;;;;;2.57;1.10;;;7.20;99.90;;;;;;6256898;22;20544;-90
2022/04/21 14:44:50;;;;;;;0.80;0.70;;;7.30;99.90;;;;;;6251604;22;20183;-91
2022/04/21 14:47:23;;;;;;;1.00;0.90;;;7.20;99.90;;;;;;6260308;22;20168;-91
2022/04/21 14:49:58;;;;;;;1.10;1.00;;;7.20;99.90;;;;;;6260616;23;20198;-90
2022/04/21 14:52:39;;;;;;;2.70;1.00;;;7.30;99.90;;;;;;6263161;23;20218;-89
2022/04/21 14:55:15;;;;;;;4.00;0.90;;;7.40;99.90;;;;;;6264965;23;20175;-91
2022/04/21 14:57:50;;;;;;;2.80;0.90;;;7.60;99.90;;;;;;6265518;22;20187;-90
2022/04/21 15:00:22;;;;;;;1.23;0.83;;;7.70;99.90;;;;;;6267293;22;20218;-89
2022/04/21 15:02:55;;;;;;;2.77;1.00;;;7.80;99.90;;;;;;6271621;23;20197;-89